CheckWX is a tool to help pilots better visualize weather data.  It is not intended as a substitute for an official pre-flight weather briefing.

10:03:50 UTC

KAWG METAR
Washington Municipal Airport
Washington, Iowa, USA
Current

9 mins ago

KAWG 200955Z AUTO 08018KT 1 1/4SM -SN BKN003 BKN007 OVC022 M02/M02 A2989 RMK AO2
Observed
Feb-20 @ 09:55 UTC
Wind
  • 080° at 18 KTS
Visibility
2,012 meters
Flight Rules
LIFR
Conditions
Light Snow
Cloud Levels
  • Broken at 300' AGL
  • Broken at 700' AGL
  • Overcast at 2,200' AGL
Temperature
-2°C / 28°F
Dewpoint
-2°C / 28°F
Humidity
100%
Altimeter
29.89" Hg
Pressure
1012.22 hPa
Previous

29 mins ago

KAWG 200935Z AUTO 08014KT 3/4SM -SN OVC003 M02/M02 A2993 RMK AO2
Observed
Feb-20 @ 09:35 UTC
Wind
  • 080° at 14 KTS
Visibility
1,207 meters
Flight Rules
LIFR
Conditions
Light Snow
Cloud Levels
  • Overcast at 300' AGL
Temperature
-2°C / 28°F
Dewpoint
-2°C / 28°F
Humidity
100%
Altimeter
29.93" Hg
Pressure
1013.52 hPa
Previous

49 mins ago

KAWG 200915Z AUTO 08016KT 1 1/4SM -SN OVC003 M02/M02 A2995 RMK AO2
Observed
Feb-20 @ 09:15 UTC
Wind
  • 080° at 16 KTS
Visibility
2,012 meters
Flight Rules
LIFR
Conditions
Light Snow
Cloud Levels
  • Overcast at 300' AGL
Temperature
-2°C / 28°F
Dewpoint
-2°C / 28°F
Humidity
100%
Altimeter
29.95" Hg
Pressure
1014.22 hPa